Time;durP1;ratioP1;P1;durP2;ratioP2;P2;SDS_P1;SDS_P2;PMS_P1;PMS_P2;Temp;Humidity;BMP_temperature;BMP_pressure;BME280_temperature;BME280_humidity;BME280_pressure;Samples;Min_cycle;Max_cycle;Signal;HPM_P1;HPM_P2
2022/01/06 00:01:39;;;;;;;0.55;0.30;;;;;;;6.62;35.96;97468.38;5011603;28;20113;-67
2022/01/06 00:04:05;;;;;;;0.30;0.20;;;;;;;6.57;34.91;97472.38;4978399;28;20517;-68
2022/01/06 00:06:32;;;;;;;1.45;0.35;;;;;;;6.56;33.79;97466.41;5026114;28;20538;-68
2022/01/06 00:08:59;;;;;;;0.43;0.20;;;;;;;6.57;33.32;97473.19;5002944;28;20052;-68
2022/01/06 00:11:25;;;;;;;0.77;0.30;;;;;;;6.61;31.78;97471.09;4986982;28;20061;-68
2022/01/06 00:14:00;;;;;;;1.58;0.43;;;;;;;6.51;31.77;97471.19;5000665;28;20136;-69
2022/01/06 00:24:18;;;;;;;1.27;0.40;;;;;;;6.65;33.19;97491.34;5007673;28;20044;-68
2022/01/06 00:26:44;;;;;;;1.42;0.30;;;;;;;6.34;35.23;97462.47;5015893;28;20042;-68
2022/01/06 00:29:09;;;;;;;0.98;0.38;;;;;;;6.61;33.00;97499.50;4998364;28;20033;-69
2022/01/06 00:31:35;;;;;;;2.38;0.30;;;;;;;6.69;30.50;97505.56;5021428;28;20137;-68
2022/01/06 00:34:00;;;;;;;1.17;0.50;;;;;;;6.35;31.26;97457.16;4989309;28;20472;-69
2022/01/06 00:36:27;;;;;;;0.28;0.20;;;;;;;6.70;33.87;97522.72;5012441;28;20037;-68
2022/01/06 00:38:52;;;;;;;1.63;0.60;;;;;;;6.69;33.73;97518.50;5033870;28;20090;-68
2022/01/06 00:41:18;;;;;;;2.85;0.73;;;;;;;6.58;35.95;97513.53;4996784;28;20112;-68
2022/01/06 00:43:43;;;;;;;1.27;0.30;;;;;;;6.68;32.94;97529.81;5054039;28;20482;-68
2022/01/06 00:46:09;;;;;;;3.72;0.77;;;;;;;6.56;33.84;97525.81;5010369;28;20033;-67
2022/01/06 00:48:34;;;;;;;1.83;0.45;;;;;;;6.65;32.16;97531.88;5013028;28;20091;-68
2022/01/06 00:51:00;;;;;;;4.00;0.47;;;;;;;6.37;33.25;97474.25;4958460;28;20862;-68
2022/01/06 00:53:25;;;;;;;1.20;0.30;;;;;;;6.71;32.93;97541.59;5015195;28;20030;-67
2022/01/06 00:55:51;;;;;;;2.70;0.75;;;;;;;6.52;35.87;97532.22;5031723;28;20029;-69
2022/01/06 00:58:16;;;;;;;2.70;0.57;;;;;;;6.63;33.28;97560.41;5019243;28;20034;-68
2022/01/06 01:00:42;;;;;;;0.70;0.30;;;;;;;6.66;34.39;97552.38;5016863;28;20037;-68
2022/01/06 01:03:21;;;;;;;1.45;0.50;;;;;;;6.19;32.98;97493.13;5014246;28;20034;-68
2022/01/06 01:05:49;;;;;;;1.70;0.40;;;;;;;6.27;34.30;97513.88;4947273;28;22651;-69
2022/01/06 01:08:15;;;;;;;1.08;0.30;;;;;;;6.70;33.68;97566.63;5022908;28;20107;-67
2022/01/06 01:10:41;;;;;;;1.35;0.40;;;;;;;6.49;32.88;97540.25;5032227;28;20690;-68
2022/01/06 01:13:10;;;;;;;0.95;0.30;;;;;;;6.55;35.57;97557.72;5015716;28;20034;-68
2022/01/06 01:15:43;;;;;;;0.73;0.30;;;;;;;6.45;32.83;97533.75;4997341;28;20038;-68
2022/01/06 01:18:10;;;;;;;1.73;0.40;;;;;;;6.64;30.86;97572.34;5025624;28;20129;-68
2022/01/06 01:20:35;;;;;;;1.65;0.38;;;;;;;6.22;29.42;97541.88;5042716;28;20817;-69
2022/01/06 01:23:01;;;;;;;0.95;0.38;;;;;;;6.57;33.45;97610.09;4961550;28;20116;-68
2022/01/06 01:25:26;;;;;;;3.03;0.50;;;;;;;6.51;32.53;97597.72;5042617;28;20026;-68
2022/01/06 01:27:55;;;;;;;1.23;0.32;;;;;;;6.51;31.80;97584.81;5032809;28;20040;-68
2022/01/06 01:30:22;;;;;;;1.58;0.30;;;;;;;6.58;32.70;97601.38;5049695;28;20457;-69
2022/01/06 01:32:51;;;;;;;1.00;0.38;;;;;;;6.55;33.86;97599.06;5010538;28;20461;-68
2022/01/06 01:35:17;;;;;;;0.98;0.30;;;;;;;6.42;31.99;97598.59;5016852;28;20160;-69
2022/01/06 01:37:42;;;;;;;1.00;0.30;;;;;;;6.52;33.09;97607.91;4914142;28;20594;-68
2022/01/06 01:40:09;;;;;;;0.90;0.30;;;;;;;6.52;31.22;97618.25;5017774;28;20037;-69
2022/01/06 01:42:35;;;;;;;1.15;0.32;;;;;;;6.48;30.15;97621.25;5015026;28;20041;-69
2022/01/06 01:45:02;;;;;;;1.45;0.40;;;;;;;6.54;30.97;97615.53;5014810;28;20029;-69
2022/01/06 01:47:37;;;;;;;2.17;0.65;;;;;;;6.16;30.94;97573.44;5016265;28;20493;-70
2022/01/06 01:50:13;;;;;;;0.90;0.30;;;;;;;6.52;30.50;97630.34;4993704;28;20487;-69
2022/01/06 01:52:44;;;;;;;0.45;0.20;;;;;;;6.26;33.52;97586.28;4985025;28;20648;-67
2022/01/06 01:55:11;;;;;;;2.53;0.60;;;;;;;6.60;31.96;97645.13;5009263;28;20132;-68
2022/01/06 01:57:37;;;;;;;2.35;0.63;;;;;;;6.56;33.93;97644.59;5015228;28;20038;-69
2022/01/06 02:00:09;;;;;;;2.40;0.68;;;;;;;6.49;30.17;97646.94;5017132;28;20772;-69
2022/01/06 02:02:34;;;;;;;1.48;0.50;;;;;;;6.40;31.20;97645.22;5016126;28;20420;-68
2022/01/06 02:05:00;;;;;;;1.65;0.40;;;;;;;6.38;31.14;97644.53;5028294;28;20037;-68
2022/01/06 02:07:26;;;;;;;0.22;0.20;;;;;;;6.25;31.13;97637.13;5043272;28;20041;-68
2022/01/06 02:09:52;;;;;;;0.82;0.30;;;;;;;6.36;32.68;97646.44;5003078;28;20033;-69
2022/01/06 02:12:25;;;;;;;1.65;0.50;;;;;;;6.24;34.07;97617.44;5020332;28;20037;-68
2022/01/06 02:14:51;;;;;;;1.13;0.40;;;;;;;6.50;35.77;97658.91;5017258;28;20818;-68
2022/01/06 02:17:16;;;;;;;1.20;0.35;;;;;;;6.43;32.95;97663.00;5017388;28;20029;-67
2022/01/06 02:19:56;;;;;;;0.60;0.20;;;;;;;6.39;32.37;97674.59;5012961;28;20422;-68
2022/01/06 02:22:21;;;;;;;;;;;;;;;6.39;30.42;97684.06;5015130;28;20104;-68
2022/01/06 02:24:48;;;;;;;0.55;0.20;;;;;;;6.28;29.74;97665.25;4959579;28;20816;-68
2022/01/06 02:27:14;;;;;;;3.80;0.98;;;;;;;6.47;33.91;97671.28;5012709;28;20086;-68
2022/01/06 02:29:40;;;;;;;0.60;0.20;;;;;;;6.47;34.74;97676.44;5021788;28;20037;-68
2022/01/06 02:32:10;;;;;;;1.55;0.40;;;;;;;6.39;32.78;97681.50;5016704;28;20061;-68
2022/01/06 02:34:36;;;;;;;1.20;0.30;;;;;;;6.54;34.29;97682.69;5001393;28;20033;-68
2022/01/06 02:37:03;;;;;;;0.45;0.20;;;;;;;6.49;33.80;97690.03;5002684;28;20084;-69
2022/01/06 02:39:28;;;;;;;1.95;0.50;;;;;;;6.22;31.85;97637.38;5013612;28;20029;-67
2022/01/06 02:41:53;;;;;;;0.30;0.20;;;;;;;6.54;31.64;97687.84;4999631;28;20036;-67
2022/01/06 02:44:21;;;;;;;2.15;0.60;;;;;;;6.48;30.53;97698.72;5013003;28;20124;-68
2022/01/06 02:46:46;;;;;;;0.52;0.20;;;;;;;6.46;32.41;97700.63;5012031;28;20037;-67
2022/01/06 02:49:12;;;;;;;2.95;0.85;;;;;;;6.27;32.17;97704.91;5016596;28;20797;-68
2022/01/06 02:51:40;;;;;;;0.73;0.28;;;;;;;6.22;32.18;97694.19;5000097;28;20037;-68
2022/01/06 02:54:05;;;;;;;1.83;0.50;;;;;;;6.22;31.58;97712.25;5050703;28;20033;-69
2022/01/06 02:56:32;;;;;;;1.45;0.50;;;;;;;6.05;32.27;97716.34;4995348;28;20463;-68
2022/01/06 02:58:57;;;;;;;1.08;0.30;;;;;;;6.04;30.76;97709.59;4955937;28;20492;-68
2022/01/06 03:01:23;;;;;;;1.65;0.50;;;;;;;6.09;30.88;97707.38;5028311;28;20282;-68
2022/01/06 03:03:48;;;;;;;1.63;0.40;;;;;;;6.18;29.84;97717.84;5016631;28;20041;-68
2022/01/06 03:06:14;;;;;;;1.63;0.50;;;;;;;6.02;30.86;97719.19;5018900;28;20033;-68
2022/01/06 03:08:39;;;;;;;0.35;0.20;;;;;;;6.15;30.75;97724.06;5052274;28;20033;-68
2022/01/06 03:11:07;;;;;;;0.45;0.25;;;;;;;6.12;29.49;97719.22;5017868;28;20085;-68
2022/01/06 03:13:32;;;;;;;3.10;0.50;;;;;;;6.18;29.48;97726.38;4962471;28;20029;-69
2022/01/06 03:15:59;;;;;;;1.45;0.50;;;;;;;6.38;28.66;97734.09;5009219;28;20037;-68
2022/01/06 03:18:24;;;;;;;0.68;0.30;;;;;;;6.31;28.81;97723.50;5034514;28;20040;-68
2022/01/06 03:20:50;;;;;;;2.05;0.52;;;;;;;6.24;28.73;97736.19;5002605;28;20025;-67
2022/01/06 03:23:15;;;;;;;0.55;0.20;;;;;;;6.35;28.59;97754.09;5017044;28;20523;-68
2022/01/06 03:25:41;;;;;;;1.70;0.50;;;;;;;6.20;29.08;97734.81;5017651;28;20038;-68
2022/01/06 03:28:06;;;;;;;0.32;0.20;;;;;;;6.08;29.44;97704.97;4979455;28;20041;-67
2022/01/06 03:30:32;;;;;;;1.83;0.63;;;;;;;6.23;29.63;97770.69;4978622;28;20046;-69
2022/01/06 03:32:57;;;;;;;1.65;0.40;;;;;;;6.28;29.05;97759.94;5018085;28;20033;-67
2022/01/06 03:35:24;;;;;;;3.65;1.13;;;;;;;6.21;31.28;97764.03;5030651;28;20033;-68
2022/01/06 03:37:50;;;;;;;2.60;0.60;;;;;;;6.22;29.70;97775.97;5012148;28;20671;-68
2022/01/06 03:40:15;;;;;;;6.30;1.50;;;;;;;6.33;29.17;97775.81;5015024;28;20030;-68
2022/01/06 03:42:41;;;;;;;0.50;0.20;;;;;;;6.06;28.81;97737.81;5041551;28;20119;-67
2022/01/06 03:45:13;;;;;;;0.52;0.22;;;;;;;6.32;29.03;97795.66;5005686;28;20033;-68
2022/01/06 03:47:38;;;;;;;1.38;0.20;;;;;;;6.39;28.73;97784.78;5011880;28;20112;-68
2022/01/06 03:50:05;;;;;;;0.40;0.20;;;;;;;6.34;28.93;97786.00;5022415;28;20105;-68
2022/01/06 03:52:30;;;;;;;0.88;0.20;;;;;;;6.29;29.34;97787.38;5024663;28;20457;-68
2022/01/06 03:54:56;;;;;;;0.93;0.20;;;;;;;6.24;28.81;97805.88;5005503;28;20034;-69
2022/01/06 03:57:21;;;;;;;0.30;0.20;;;;;;;6.26;30.32;97806.56;5007917;28;20583;-69
2022/01/06 03:59:47;;;;;;;0.68;0.20;;;;;;;6.34;29.06;97811.03;4965425;28;20471;-67
2022/01/06 04:02:12;;;;;;;1.55;0.30;;;;;;;6.28;31.66;97808.97;5010628;28;20044;-68
2022/01/06 04:04:38;;;;;;;0.40;0.20;;;;;;;6.29;29.14;97808.84;5023311;28;20052;-69
2022/01/06 04:07:04;;;;;;;1.17;0.40;;;;;;;6.27;28.83;97815.91;5019053;28;20029;-70
2022/01/06 04:09:29;;;;;;;1.13;0.30;;;;;;;6.27;28.65;97813.34;5018685;28;20033;-69
2022/01/06 04:11:55;;;;;;;0.25;0.10;;;;;;;5.88;29.89;97773.81;5017506;28;20037;-70
2022/01/06 04:14:20;;;;;;;1.17;0.30;;;;;;;6.23;29.34;97824.09;5025487;28;20049;-70
2022/01/06 04:16:46;;;;;;;0.45;0.13;;;;;;;6.24;30.04;97820.53;4942909;28;20037;-69
2022/01/06 04:19:11;;;;;;;0.30;0.20;;;;;;;6.19;29.45;97805.47;5024669;28;20039;-69
2022/01/06 04:21:36;;;;;;;0.20;0.10;;;;;;;6.10;30.14;97809.69;5035056;28;20077;-69
2022/01/06 04:24:02;;;;;;;0.82;0.20;;;;;;;6.13;30.99;97821.50;5014236;28;20064;-69
2022/01/06 04:26:28;;;;;;;0.63;0.20;;;;;;;6.20;29.81;97807.09;5038078;28;20068;-69
2022/01/06 04:28:53;;;;;;;0.35;0.20;;;;;;;6.24;29.14;97823.97;5033675;28;20489;-69
2022/01/06 04:31:19;;;;;;;0.43;0.20;;;;;;;6.23;28.68;97818.94;5010973;28;20033;-69
2022/01/06 04:33:44;;;;;;;0.38;0.20;;;;;;;6.13;29.49;97824.91;4956961;28;20388;-68
2022/01/06 04:36:10;;;;;;;0.57;0.20;;;;;;;6.14;31.47;97825.72;5022147;28;20416;-68
2022/01/06 04:38:36;;;;;;;0.40;0.10;;;;;;;6.22;30.00;97837.94;5020159;28;20597;-68
2022/01/06 04:41:03;;;;;;;0.82;0.22;;;;;;;6.10;30.56;97834.69;5034296;28;20034;-70
2022/01/06 04:43:28;;;;;;;0.63;0.20;;;;;;;6.23;31.27;97826.66;5019954;28;20040;-70
2022/01/06 04:45:54;;;;;;;1.42;0.40;;;;;;;6.17;30.96;97828.03;5044603;28;20725;-69
2022/01/06 04:48:19;;;;;;;0.90;0.20;;;;;;;6.23;31.37;97842.16;4943677;28;21357;-69
2022/01/06 04:50:44;;;;;;;0.93;0.30;;;;;;;6.16;31.38;97840.09;5013890;28;20064;-69
2022/01/06 04:53:10;;;;;;;0.43;0.10;;;;;;;6.28;32.08;97839.97;5049508;28;20813;-69
2022/01/06 04:55:35;;;;;;;1.48;0.30;;;;;;;6.29;29.19;97841.59;5014794;28;20033;-70
2022/01/06 04:58:01;;;;;;;0.47;0.17;;;;;;;6.23;32.20;97837.81;5007706;28;20029;-69
2022/01/06 05:00:26;;;;;;;0.85;0.30;;;;;;;5.93;30.00;97805.97;5021883;28;20049;-69
2022/01/06 05:02:53;;;;;;;0.20;0.17;;;;;;;6.04;32.85;97838.63;5021965;28;20080;-69
2022/01/06 05:05:18;;;;;;;0.50;0.20;;;;;;;6.18;31.81;97863.19;4955571;28;20033;-68
2022/01/06 05:07:44;;;;;;;2.08;0.25;;;;;;;6.33;30.91;97871.34;5054932;28;20033;-69
2022/01/06 05:10:11;;;;;;;0.90;0.30;;;;;;;6.35;32.82;97872.03;5016234;28;20080;-69
2022/01/06 05:12:43;;;;;;;0.50;0.20;;;;;;;6.05;31.74;97811.84;5004982;28;20083;-70
2022/01/06 05:15:10;;;;;;;0.40;0.20;;;;;;;6.32;31.44;97873.13;5017876;28;20087;-70
2022/01/06 05:17:36;;;;;;;0.70;0.20;;;;;;;6.26;31.58;97872.84;5022384;28;20109;-68
2022/01/06 05:20:03;;;;;;;0.50;0.20;;;;;;;6.45;32.17;97878.03;5008633;28;20038;-69
2022/01/06 05:22:29;;;;;;;0.30;0.20;;;;;;;6.59;34.05;97884.56;5019504;28;20134;-69
2022/01/06 05:24:55;;;;;;;0.10;0.10;;;;;;;6.44;32.39;97871.22;5027419;28;20030;-70
2022/01/06 05:27:20;;;;;;;0.52;0.20;;;;;;;6.35;32.82;97880.63;5029065;28;20171;-69
2022/01/06 05:29:45;;;;;;;0.73;0.20;;;;;;;6.45;34.47;97879.81;5018723;28;20158;-68
2022/01/06 05:32:11;;;;;;;0.10;0.10;;;;;;;6.47;36.50;97895.97;5022034;28;20040;-69
2022/01/06 05:34:36;;;;;;;0.10;0.10;;;;;;;6.54;34.40;97886.72;5022865;28;20507;-67
2022/01/06 05:37:02;;;;;;;0.77;0.22;;;;;;;6.42;33.29;97887.81;4998809;28;20101;-68
2022/01/06 05:39:27;;;;;;;0.20;0.10;;;;;;;6.46;33.20;97889.16;5019383;28;20153;-69
2022/01/06 05:41:53;;;;;;;0.20;0.03;;;;;;;6.63;31.99;97891.06;5015459;28;20068;-69
2022/01/06 05:44:18;;;;;;;0.30;0.10;;;;;;;6.75;33.00;97904.66;5019255;28;20140;-69
2022/01/06 05:46:47;;;;;;;0.32;0.10;;;;;;;6.77;32.86;97914.84;5016523;28;20092;-68
2022/01/06 05:49:14;;;;;;;0.68;0.20;;;;;;;6.71;32.22;97891.19;5047777;28;20026;-68
2022/01/06 05:51:39;;;;;;;0.10;0.10;;;;;;;6.82;33.94;97917.84;5017718;28;20072;-68
2022/01/06 05:54:06;;;;;;;0.47;0.15;;;;;;;6.84;32.88;97906.41;4922046;28;20081;-69
2022/01/06 05:56:32;;;;;;;0.30;0.13;;;;;;;6.83;32.09;97903.97;5029313;28;20061;-69
2022/01/06 05:58:57;;;;;;;0.98;0.20;;;;;;;6.78;34.33;97914.72;5001363;28;20040;-68
2022/01/06 06:01:23;;;;;;;0.77;0.30;;;;;;;6.66;33.83;97914.06;5001684;28;20079;-69
2022/01/06 06:03:49;;;;;;;0.65;0.20;;;;;;;6.62;35.21;97902.34;5022212;28;20392;-69
2022/01/06 06:06:15;;;;;;;0.25;0.17;;;;;;;6.62;32.71;97907.50;5011200;28;20031;-69
2022/01/06 06:08:40;;;;;;;0.35;0.13;;;;;;;6.64;32.42;97926.25;4927284;28;21587;-68
2022/01/06 06:11:06;;;;;;;0.40;0.10;;;;;;;6.55;32.14;97919.34;5012968;28;20551;-68
2022/01/06 06:13:32;;;;;;;0.88;0.15;;;;;;;6.48;34.37;97923.41;5016042;28;20040;-69
2022/01/06 06:15:57;;;;;;;2.42;0.70;;;;;;;6.39;35.74;97931.97;5041647;28;20026;-69
2022/01/06 06:18:22;;;;;;;5.20;1.90;;;;;;;6.27;39.65;97939.03;5046172;28;20067;-69
2022/01/06 06:20:48;;;;;;;4.95;2.10;;;;;;;5.57;42.86;97887.38;5007556;28;20038;-68
2022/01/06 06:23:13;;;;;;;7.60;4.38;;;;;;;5.74;52.25;97951.22;5018679;28;20501;-68
2022/01/06 06:25:39;;;;;;;8.80;5.05;;;;;;;5.11;59.14;97945.34;5008280;28;20041;-68
2022/01/06 06:28:04;;;;;;;6.00;2.83;;;;;;;5.03;51.85;97947.75;5002444;28;20030;-68
2022/01/06 06:30:30;;;;;;;7.30;3.95;;;;;;;5.06;56.17;97955.25;5018821;28;20065;-69
2022/01/06 06:32:55;;;;;;;3.97;1.20;;;;;;;5.32;47.37;97963.38;5013125;28;20034;-68
2022/01/06 06:35:20;;;;;;;5.75;2.38;;;;;;;5.18;47.53;97949.06;5013362;28;20436;-69
2022/01/06 06:37:46;;;;;;;1.88;0.60;;;;;;;5.70;38.65;97939.53;5010620;28;20022;-68
2022/01/06 06:40:11;;;;;;;0.68;0.30;;;;;;;6.22;36.35;97960.06;5008039;28;20124;-69
2022/01/06 06:42:37;;;;;;;2.38;0.10;;;;;;;6.32;35.60;97927.34;5028274;28;20991;-69
2022/01/06 06:45:03;;;;;;;0.25;0.10;;;;;;;6.54;36.79;97946.94;5013882;28;20087;-69
2022/01/06 06:47:28;;;;;;;0.52;0.20;;;;;;;6.65;32.75;97964.06;5010419;28;20084;-70
2022/01/06 06:49:56;;;;;;;0.43;0.10;;;;;;;6.66;35.08;97955.38;5014955;28;20064;-69
2022/01/06 06:52:21;;;;;;;2.38;0.30;;;;;;;6.21;35.80;97926.69;5014010;28;20116;-70
2022/01/06 06:54:48;;;;;;;0.20;0.20;;;;;;;6.58;35.16;97957.81;4998487;28;20145;-69
2022/01/06 06:57:13;;;;;;;0.40;0.20;;;;;;;6.70;35.38;97961.91;5014035;28;20034;-68
2022/01/06 06:59:39;;;;;;;0.52;0.20;;;;;;;6.74;34.36;97972.78;4926809;28;20062;-70
2022/01/06 07:02:05;;;;;;;0.10;0.10;;;;;;;6.52;34.59;97922.22;5016671;28;20025;-68
2022/01/06 07:04:30;;;;;;;0.43;0.20;;;;;;;6.74;36.70;97981.34;5013624;28;20048;-69
2022/01/06 07:06:56;;;;;;;1.20;0.30;;;;;;;6.64;35.41;97977.13;5012233;28;20049;-68
2022/01/06 07:09:21;;;;;;;0.10;0.10;;;;;;;6.58;35.16;97965.56;5032237;28;20065;-69
2022/01/06 07:11:46;;;;;;;1.05;0.20;;;;;;;6.65;34.51;97989.09;4999850;28;20029;-68
2022/01/06 07:14:12;;;;;;;0.30;0.10;;;;;;;6.57;34.22;97979.44;4965576;28;20738;-68
2022/01/06 07:16:37;;;;;;;0.68;0.20;;;;;;;6.58;32.18;97985.44;5012319;28;20034;-69
2022/01/06 07:19:03;;;;;;;1.40;0.75;;;;;;;6.55;33.43;97989.06;5005175;28;20354;-69
2022/01/06 07:21:28;;;;;;;0.90;0.20;;;;;;;6.50;32.52;97996.44;5024480;28;20473;-69
2022/01/06 07:23:54;;;;;;;0.35;0.15;;;;;;;6.44;30.80;97991.78;5020301;28;20507;-68
2022/01/06 07:26:19;;;;;;;0.40;0.10;;;;;;;6.51;31.48;98009.19;5004750;28;20026;-69
2022/01/06 07:28:45;;;;;;;0.52;0.20;;;;;;;6.47;31.47;98000.09;5015929;28;20438;-69
2022/01/06 07:31:10;;;;;;;0.52;0.13;;;;;;;6.58;31.87;98013.84;4918088;28;20052;-69
2022/01/06 07:33:36;;;;;;;0.22;0.15;;;;;;;6.58;32.27;98016.41;5016923;28;20477;-70
2022/01/06 07:36:02;;;;;;;0.40;0.17;;;;;;;6.64;33.02;98008.13;5027340;28;20476;-69
2022/01/06 07:38:27;;;;;;;0.25;0.20;;;;;;;6.51;30.37;98006.59;5007404;28;20095;-69
2022/01/06 07:40:54;;;;;;;0.68;0.10;;;;;;;6.18;30.45;97960.50;5005007;28;20040;-70
2022/01/06 07:43:19;;;;;;;0.60;0.15;;;;;;;6.61;29.30;98027.31;5015763;28;20064;-69
2022/01/06 07:45:46;;;;;;;0.85;0.30;;;;;;;6.36;29.51;98000.19;4993888;28;20355;-69
2022/01/06 07:48:16;;;;;;;0.30;0.20;;;;;;;6.51;29.17;98024.69;5016149;28;20558;-69
2022/01/06 07:50:43;;;;;;;0.85;0.20;;;;;;;6.57;29.58;98043.19;5019594;28;20331;-69
2022/01/06 07:53:08;;;;;;;5.05;2.08;;;;;;;6.44;35.02;98051.19;5032599;28;20136;-68
2022/01/06 07:55:34;;;;;;;10.65;4.85;;;;;;;6.02;45.91;98049.53;5003147;28;20515;-68
2022/01/06 07:58:00;;;;;;;8.55;5.18;;;;;;;5.84;48.40;98069.13;5019256;28;20152;-68
2022/01/06 08:00:26;;;;;;;9.25;6.05;;;;;;;5.43;51.21;98063.06;5022690;28;20702;-68
2022/01/06 08:02:51;;;;;;;7.95;4.65;;;;;;;5.25;53.78;98070.53;5000126;28;20029;-69
2022/01/06 08:05:19;;;;;;;11.40;6.10;;;;;;;4.72;57.70;98025.75;5016234;28;20273;-69
2022/01/06 08:07:45;;;;;;;9.45;6.10;;;;;;;4.75;60.21;98101.97;5016401;28;20531;-68
2022/01/06 08:10:11;;;;;;;11.23;7.20;;;;;;;4.43;64.16;98098.38;5033424;28;20025;-69
2022/01/06 08:12:37;;;;;;;10.63;7.43;;;;;;;4.14;66.36;98080.00;5016729;28;20041;-68
2022/01/06 08:15:02;;;;;;;12.27;8.18;;;;;;;4.08;68.24;98101.06;5044732;28;20037;-69
2022/01/06 08:17:28;;;;;;;11.02;6.90;;;;;;;3.86;66.73;98055.56;5008345;28;20033;-69
2022/01/06 08:19:53;;;;;;;10.48;6.93;;;;;;;3.91;65.58;98070.66;5032959;28;20083;-69
2022/01/06 08:22:19;;;;;;;19.92;12.98;;;;;;;4.00;69.14;98100.84;5018882;28;20030;-67
2022/01/06 08:24:45;;;;;;;12.50;8.02;;;;;;;4.04;71.16;98100.47;5018051;28;20018;-69
2022/01/06 08:27:10;;;;;;;12.43;8.05;;;;;;;4.08;71.56;98119.06;5020680;28;20168;-69
2022/01/06 08:29:40;;;;;;;12.57;8.25;;;;;;;4.07;71.93;98111.47;5021459;28;20037;-69
2022/01/06 08:32:06;;;;;;;10.57;7.15;;;;;;;4.13;71.21;98116.16;5015816;28;20052;-68
2022/01/06 08:34:33;;;;;;;13.20;8.93;;;;;;;3.95;73.21;98108.88;4995539;28;20029;-67
2022/01/06 08:36:58;;;;;;;12.75;7.93;;;;;;;3.74;74.37;98080.47;5033469;28;20029;-68
2022/01/06 08:39:23;;;;;;;11.13;7.32;;;;;;;4.09;74.24;98125.88;5024437;28;20526;-68
2022/01/06 08:41:50;;;;;;;12.85;8.27;;;;;;;4.12;74.06;98122.22;5005476;28;20033;-68
2022/01/06 08:44:15;;;;;;;13.15;8.32;;;;;;;3.85;74.66;98100.22;5021799;28;20042;-67
2022/01/06 08:46:41;;;;;;;12.40;8.20;;;;;;;4.13;74.72;98139.31;5015540;28;20034;-67
2022/01/06 08:49:11;;;;;;;12.10;8.20;;;;;;;3.95;76.48;98141.50;5029000;28;20061;-68
2022/01/06 08:51:39;;;;;;;12.75;7.63;;;;;;;3.98;75.85;98129.25;5029457;28;20452;-69
2022/01/06 08:54:06;;;;;;;13.45;7.70;;;;;;;4.07;76.29;98147.50;5014336;28;20025;-68
2022/01/06 08:56:33;;;;;;;11.48;7.72;;;;;;;4.11;76.42;98149.72;5014239;28;20108;-68
2022/01/06 08:58:58;;;;;;;12.13;8.15;;;;;;;4.14;76.91;98158.97;5010835;28;20021;-68
2022/01/06 09:01:24;;;;;;;11.75;7.93;;;;;;;4.11;77.01;98152.31;5035391;28;20091;-68
2022/01/06 09:03:49;;;;;;;13.00;8.13;;;;;;;4.01;77.27;98133.34;5010046;28;20030;-67
2022/01/06 09:06:15;;;;;;;13.02;8.30;;;;;;;4.14;77.18;98164.91;5015356;28;20033;-68
2022/01/06 09:08:40;;;;;;;13.02;8.15;;;;;;;3.87;77.04;98136.94;5014935;28;20040;-69
2022/01/06 09:11:05;;;;;;;13.75;8.98;;;;;;;3.90;78.97;98159.03;5010254;28;20477;-69
2022/01/06 09:13:31;;;;;;;12.43;9.15;;;;;;;4.02;78.22;98158.13;5008606;28;20038;-68
2022/01/06 09:15:56;;;;;;;12.60;8.60;;;;;;;3.91;78.80;98140.94;5014336;28;20651;-71
2022/01/06 09:18:22;;;;;;;13.05;8.60;;;;;;;4.09;78.26;98151.59;5024114;28;20056;-67
2022/01/06 09:20:47;;;;;;;13.75;9.13;;;;;;;4.08;78.75;98144.00;5040379;28;20460;-69
2022/01/06 09:23:13;;;;;;;13.93;9.82;;;;;;;4.18;79.39;98163.78;5044423;28;20477;-69
2022/01/06 09:25:38;;;;;;;17.38;11.15;;;;;;;4.22;79.27;98172.09;5007175;28;20030;-68
2022/01/06 09:28:04;;;;;;;17.08;10.27;;;;;;;4.20;78.66;98174.78;5041411;28;20033;-68
2022/01/06 09:30:29;;;;;;;15.57;10.60;;;;;;;4.34;79.03;98178.06;5049516;28;20033;-69
2022/01/06 09:32:55;;;;;;;15.32;9.68;;;;;;;4.18;77.32;98176.66;5022757;28;20596;-68
2022/01/06 09:35:21;;;;;;;19.33;12.18;;;;;;;4.23;79.29;98177.13;4999532;28;20117;-68
2022/01/06 09:37:47;;;;;;;17.30;11.65;;;;;;;4.29;78.95;98183.56;5045694;28;20029;-68
2022/01/06 09:40:12;;;;;;;13.77;9.02;;;;;;;4.00;72.32;98139.44;5046947;28;20393;-68
2022/01/06 09:42:41;;;;;;;17.92;10.68;;;;;;;4.00;73.92;98127.38;5035374;28;20091;-68
2022/01/06 09:45:07;;;;;;;19.13;12.65;;;;;;;3.93;77.38;98130.53;5013917;28;20033;-68
2022/01/06 09:47:33;;;;;;;15.60;9.80;;;;;;;4.03;74.06;98181.19;5009295;28;20056;-68
2022/01/06 09:49:59;;;;;;;16.92;10.13;;;;;;;4.16;74.12;98180.25;4992951;28;20030;-68
2022/01/06 09:52:24;;;;;;;16.98;10.05;;;;;;;4.10;73.12;98176.38;5043325;28;20435;-68
2022/01/06 09:54:49;;;;;;;18.08;10.95;;;;;;;3.96;75.21;98161.16;5003430;28;20605;-68
2022/01/06 09:57:15;;;;;;;16.55;10.68;;;;;;;3.95;75.94;98168.06;5005388;28;20032;-69
2022/01/06 09:59:43;;;;;;;15.80;9.52;;;;;;;4.00;72.62;98165.97;5011889;28;20147;-68
2022/01/06 10:02:16;;;;;;;13.50;7.63;;;;;;;3.92;72.24;98167.47;5017156;28;20025;-70
2022/01/06 10:04:47;;;;;;;13.07;8.40;;;;;;;3.96;73.33;98172.28;5008112;28;20030;-69
2022/01/06 10:07:15;;;;;;;15.45;9.23;;;;;;;4.07;73.71;98152.63;4995343;28;20120;-68
2022/01/06 10:09:41;;;;;;;12.95;8.27;;;;;;;4.32;73.64;98157.56;5042779;28;20369;-68
2022/01/06 10:12:11;;;;;;;14.85;8.93;;;;;;;4.36;74.37;98142.72;5006538;28;20064;-69
2022/01/06 10:14:43;;;;;;;13.05;8.80;;;;;;;4.51;72.45;98153.59;4979463;28;20060;-68
2022/01/06 10:17:16;;;;;;;14.70;9.48;;;;;;;4.64;74.41;98159.47;5000704;28;20056;-68
2022/01/06 10:19:44;;;;;;;16.88;11.15;;;;;;;4.73;77.30;98158.75;5005729;28;20022;-68
2022/01/06 10:22:18;;;;;;;16.13;9.18;;;;;;;4.80;74.33;98146.19;5013614;28;20034;-69
2022/01/06 10:24:44;;;;;;;16.20;8.88;;;;;;;4.90;69.96;98151.47;5016181;28;20080;-69
2022/01/06 10:27:12;;;;;;;16.48;10.60;;;;;;;4.96;72.16;98149.19;5026958;28;20503;-68
2022/01/06 10:29:39;;;;;;;13.88;8.88;;;;;;;5.06;72.19;98149.31;4963065;28;20347;-68
2022/01/06 10:32:09;;;;;;;16.83;9.90;;;;;;;4.91;72.71;98119.59;5016571;28;20026;-68
2022/01/06 10:34:36;;;;;;;;;;;;;;;5.11;66.26;98154.09;4998260;28;20045;-69
2022/01/06 10:37:02;;;;;;;11.63;7.28;;;;;;;5.00;62.79;98148.03;5050888;28;19917;-69
2022/01/06 10:39:41;;;;;;;11.38;6.20;;;;;;;5.04;62.28;98152.94;5046818;28;20587;-69
2022/01/06 10:42:07;;;;;;;11.32;6.18;;;;;;;5.06;62.77;98151.09;5013327;28;20030;-69
2022/01/06 10:44:33;;;;;;;11.45;6.10;;;;;;;5.18;63.14;98163.81;4989704;28;20380;-68
2022/01/06 10:46:58;;;;;;;7.97;4.45;;;;;;;5.21;58.47;98167.91;5017173;28;20128;-69
2022/01/06 10:49:24;;;;;;;11.20;5.95;;;;;;;4.95;62.98;98115.84;5002468;28;20120;-68
2022/01/06 10:51:50;;;;;;;13.45;7.68;;;;;;;5.32;65.28;98169.63;5032317;28;20101;-68
2022/01/06 10:54:23;;;;;;;11.38;7.07;;;;;;;4.95;64.80;98108.13;5016444;28;20025;-69
2022/01/06 10:57:03;;;;;;;15.75;9.45;;;;;;;5.38;66.59;98159.66;5004655;28;20033;-68
2022/01/06 10:59:32;;;;;;;13.60;8.77;;;;;;;5.23;71.60;98126.53;5032291;28;20088;-69
2022/01/06 11:01:58;;;;;;;14.10;9.73;;;;;;;5.31;68.82;98124.16;5007167;28;20507;-69
2022/01/06 11:04:24;;;;;;;11.85;7.70;;;;;;;5.61;67.80;98162.13;5017047;28;20025;-69
2022/01/06 11:06:50;;;;;;;13.77;7.90;;;;;;;5.56;66.03;98149.59;5018071;28;20065;-68
2022/01/06 11:09:16;;;;;;;16.33;9.65;;;;;;;5.51;69.99;98144.00;5025843;28;20028;-68
2022/01/06 11:14:27;;;;;;;15.35;9.65;;;;;;;5.77;68.89;98157.38;5023819;28;20022;-69
2022/01/06 11:16:53;;;;;;;14.10;8.80;;;;;;;5.82;67.38;98153.56;4963896;28;20037;-70
2022/01/06 11:19:21;;;;;;;12.98;8.98;;;;;;;5.59;68.19;98105.50;5021484;28;20026;-68
2022/01/06 11:21:48;;;;;;;14.45;9.45;;;;;;;5.94;68.89;98155.97;5018425;28;20033;-69
2022/01/06 11:24:20;;;;;;;11.98;7.85;;;;;;;5.71;66.96;98110.59;4998545;28;20082;-69
2022/01/06 11:27:02;;;;;;;11.73;6.68;;;;;;;6.05;62.00;98154.31;5015520;28;20100;-68
2022/01/06 11:29:30;;;;;;;10.75;6.85;;;;;;;6.00;63.11;98130.63;5050026;28;20488;-69
2022/01/06 11:31:55;;;;;;;13.23;8.48;;;;;;;6.07;65.75;98139.50;4997198;28;20037;-69
2022/01/06 11:34:21;;;;;;;16.10;9.20;;;;;;;6.19;67.03;98148.81;5018236;28;20022;-68
2022/01/06 11:36:50;;;;;;;14.23;9.95;;;;;;;5.95;68.34;98100.88;5031967;28;20491;-68
2022/01/06 11:39:30;;;;;;;14.02;9.68;;;;;;;6.27;68.48;98153.34;5022176;28;20055;-68
2022/01/06 11:41:59;;;;;;;;;;;;;;;6.29;69.11;98152.25;5018582;28;20453;-68
2022/01/06 11:44:29;;;;;;;17.52;10.48;;;;;;;6.33;68.07;98151.06;5048239;28;19917;-68
2022/01/06 11:46:56;;;;;;;21.67;13.05;;;;;;;6.25;68.29;98137.97;5015542;28;20585;-67